createdAt,value
2019-05-30T00:01:15.141Z,22.90
2019-05-30T00:03:47.059Z,23.60
2019-05-30T00:06:18.756Z,23.60
2019-05-30T00:08:50.602Z,24.60
2019-05-30T00:11:22.432Z,24.40
2019-05-30T00:13:54.573Z,24.00
2019-05-30T00:16:26.414Z,25.20
2019-05-30T00:18:58.757Z,24.90
2019-05-30T00:21:30.478Z,25.50
2019-05-30T00:24:02.225Z,27.10
2019-05-30T00:26:33.976Z,27.70
2019-05-30T00:29:08.102Z,27.80
2019-05-30T00:31:39.996Z,28.20
2019-05-30T00:34:11.860Z,26.60
2019-05-30T00:36:44.673Z,26.80
2019-05-30T00:39:16.461Z,27.80
2019-05-30T00:41:48.282Z,29.20
2019-05-30T00:44:21.762Z,30.00
2019-05-30T00:46:53.446Z,30.60
2019-05-30T00:50:14.167Z,31.00
2019-05-30T00:52:47.935Z,30.10
2019-05-30T00:55:21.228Z,30.00
2019-05-30T00:57:53.007Z,31.00
2019-05-30T01:00:41.990Z,31.30
2019-05-30T01:02:59.906Z,31.50
2019-05-30T01:05:31.842Z,31.80
2019-05-30T01:08:03.713Z,32.50
2019-05-30T01:10:39.835Z,33.10
2019-05-30T01:13:11.630Z,33.30
2019-05-30T01:15:43.580Z,34.30
2019-05-30T01:18:17.372Z,33.00
2019-05-30T01:20:49.220Z,35.60
2019-05-30T01:23:21.332Z,34.30
2019-05-30T01:25:53.129Z,35.40
2019-05-30T01:28:25.045Z,35.00
2019-05-30T01:31:03.149Z,36.00
2019-05-30T01:33:30.346Z,35.80
2019-05-30T01:36:02.279Z,37.00
2019-05-30T01:38:35.096Z,37.10
2019-05-30T01:41:07.976Z,38.10
2019-05-30T01:43:39.954Z,37.40
2019-05-30T01:46:11.689Z,38.20
2019-05-30T01:48:43.659Z,38.10
2019-05-30T01:51:15.461Z,38.30
2019-05-30T01:53:48.557Z,40.70
2019-05-30T01:56:20.578Z,40.00
2019-05-30T01:58:52.300Z,39.70
2019-05-30T02:01:25.668Z,40.40
2019-05-30T02:04:11.802Z,38.20
2019-05-30T02:06:43.631Z,37.90
2019-05-30T02:09:15.355Z,38.70
2019-05-30T02:11:47.099Z,38.80
2019-05-30T02:14:18.850Z,38.20
2019-05-30T02:16:50.571Z,38.70
2019-05-30T02:19:22.302Z,38.00
2019-05-30T02:21:54.084Z,53.00
2019-05-30T02:24:25.890Z,38.50
2019-05-30T02:26:57.697Z,39.20
2019-05-30T02:29:29.425Z,40.80
2019-05-30T02:32:02.944Z,41.10
2019-05-30T02:34:34.615Z,42.80
2019-05-30T02:37:08.494Z,42.10
2019-05-30T02:39:39.956Z,40.90
2019-05-30T02:42:11.876Z,41.70
2019-05-30T02:44:43.613Z,43.20
2019-05-30T02:47:15.403Z,42.90
2019-05-30T02:49:47.146Z,44.20
2019-05-30T02:52:18.970Z,43.80
2019-05-30T02:54:50.725Z,43.80
2019-05-30T02:57:22.783Z,43.20
2019-05-30T02:59:54.685Z,44.20
2019-05-30T03:02:26.401Z,44.50
2019-05-30T03:04:58.237Z,46.50
2019-05-30T03:07:30.048Z,43.10
2019-05-30T03:10:02.788Z,44.00
2019-05-30T03:12:35.553Z,45.00
2019-05-30T03:15:11.767Z,44.30
2019-05-30T03:17:41.288Z,44.00
2019-05-30T03:20:21.862Z,40.60
2019-05-30T03:22:47.113Z,38.40
2019-05-30T03:25:19.100Z,35.00
2019-05-30T03:27:50.811Z,34.00
2019-05-30T03:30:28.274Z,31.30
2019-05-30T03:33:07.322Z,29.30
2019-05-30T03:35:38.951Z,27.50
2019-05-30T03:38:05.829Z,25.50
2019-05-30T03:40:37.989Z,24.60
2019-05-30T03:43:11.605Z,24.50
2019-05-30T03:45:45.277Z,22.10
2019-05-30T03:48:20.497Z,20.80
2019-05-30T03:50:54.879Z,19.70
2019-05-30T03:53:26.636Z,19.10
2019-05-30T03:56:09.368Z,19.10
2019-05-30T03:59:13.149Z,19.80
2019-05-30T04:02:30.425Z,18.40
2019-05-30T04:05:09.370Z,17.20
2019-05-30T04:07:47.802Z,16.60
2019-05-30T04:10:22.509Z,16.40
2019-05-30T04:13:28.210Z,22.30
2019-05-30T04:15:59.938Z,16.40
2019-05-30T04:18:31.694Z,16.50
2019-05-30T04:21:03.390Z,16.70
2019-05-30T04:23:35.033Z,16.50
2019-05-30T04:26:09.580Z,16.00
2019-05-30T04:28:41.145Z,16.60
2019-05-30T04:31:14.397Z,15.50
2019-05-30T04:33:46.293Z,16.50
2019-05-30T04:36:19.203Z,16.70
2019-05-30T04:38:51.118Z,15.50
2019-05-30T04:41:22.786Z,17.00
2019-05-30T04:43:54.489Z,17.30
2019-05-30T04:46:26.108Z,15.40
2019-05-30T04:48:57.802Z,14.70
2019-05-30T04:51:30.787Z,14.40
2019-05-30T04:54:02.604Z,14.70
2019-05-30T04:56:34.223Z,15.20
2019-05-30T04:59:05.884Z,15.20
2019-05-30T05:01:37.534Z,14.50
2019-05-30T05:04:09.183Z,13.00
2019-05-30T05:06:40.918Z,13.30
2019-05-30T05:09:13.995Z,14.60
2019-05-30T05:11:45.725Z,14.80
2019-05-30T05:14:18.469Z,14.50
2019-05-30T05:16:51.174Z,13.90
2019-05-30T05:19:25.909Z,14.70
2019-05-30T05:21:56.388Z,16.80
2019-05-30T05:24:28.045Z,16.00
2019-05-30T05:26:59.680Z,16.40
2019-05-30T05:29:32.376Z,16.50
2019-05-30T05:32:05.729Z,15.30
2019-05-30T05:34:37.432Z,13.30
2019-05-30T05:37:09.128Z,13.70
2019-05-30T05:39:40.930Z,14.50
2019-05-30T05:42:12.639Z,14.20
2019-05-30T05:44:44.430Z,12.40
2019-05-30T05:47:16.426Z,13.10
2019-05-30T05:49:48.258Z,13.40
2019-05-30T05:52:20.721Z,22.90
2019-05-30T05:54:52.436Z,13.20
2019-05-30T05:57:25.014Z,12.10
2019-05-30T05:59:56.930Z,13.40
2019-05-30T06:02:28.748Z,11.40
2019-05-30T06:05:00.468Z,9.60
2019-05-30T06:07:32.196Z,9.00
2019-05-30T06:10:03.971Z,8.00
2019-05-30T06:12:35.628Z,7.30
2019-05-30T06:15:07.684Z,7.20
2019-05-30T06:17:39.306Z,7.30
2019-05-30T06:20:11.175Z,5.20
2019-05-30T06:22:42.814Z,3.50
2019-05-30T06:25:14.527Z,2.80
2019-05-30T06:27:46.375Z,4.10
2019-05-30T06:30:18.347Z,3.90
2019-05-30T06:32:50.088Z,3.20
2019-05-30T06:35:22.941Z,2.50
2019-05-30T06:37:54.702Z,2.60
2019-05-30T06:40:30.394Z,1.60
2019-05-30T06:42:59.718Z,1.90
2019-05-30T06:45:32.485Z,2.30
2019-05-30T06:48:04.139Z,1.60
2019-05-30T06:50:35.768Z,1.00
2019-05-30T06:53:07.484Z,1.00
2019-05-30T06:55:39.125Z,1.00
2019-05-30T06:58:10.784Z,1.00
2019-05-30T07:00:42.527Z,1.50
2019-05-30T07:03:14.172Z,1.00
2019-05-30T07:05:46.370Z,1.00
2019-05-30T07:08:18.309Z,1.90
2019-05-30T07:10:50.096Z,1.00
2019-05-30T07:13:23.120Z,1.00
2019-05-30T07:15:59.806Z,1.00
2019-05-30T07:18:34.872Z,1.00
2019-05-30T07:21:04.939Z,1.10
2019-05-30T07:23:39.266Z,1.00
2019-05-30T07:26:10.080Z,1.00
2019-05-30T07:28:42.013Z,1.00
2019-05-30T07:31:13.737Z,1.00
2019-05-30T07:33:45.546Z,1.00
2019-05-30T07:36:17.316Z,1.00
2019-05-30T07:38:48.956Z,1.00
2019-05-30T07:41:20.649Z,1.00
2019-05-30T07:43:52.355Z,1.00
2019-05-30T07:46:24.778Z,1.00
2019-05-30T07:48:56.645Z,1.00
2019-05-30T07:51:28.888Z,1.00
2019-05-30T07:54:00.504Z,1.00
2019-05-30T07:56:33.450Z,1.00
2019-05-30T07:59:05.350Z,1.00
2019-05-30T08:01:37.019Z,1.00
2019-05-30T08:04:08.673Z,1.00
2019-05-30T08:06:40.506Z,1.00
2019-05-30T08:09:12.302Z,1.00
2019-05-30T08:11:43.970Z,1.00
2019-05-30T08:14:15.764Z,1.00
2019-05-30T08:16:47.554Z,1.00
2019-05-30T08:19:19.472Z,1.00
2019-05-30T08:21:51.381Z,1.00
2019-05-30T08:24:23.259Z,1.00
2019-05-30T08:26:54.981Z,1.00
2019-05-30T08:29:27.969Z,1.00
2019-05-30T08:31:59.947Z,1.00
2019-05-30T08:34:32.464Z,1.00
2019-05-30T08:37:05.127Z,2.20
2019-05-30T08:39:37.359Z,2.50
2019-05-30T08:42:09.088Z,4.30
2019-05-30T08:44:41.999Z,5.10
2019-05-30T08:47:14.622Z,1.60
2019-05-30T08:49:46.399Z,3.30
2019-05-30T08:52:18.090Z,1.90
2019-05-30T08:54:49.749Z,6.00
2019-05-30T08:57:21.445Z,3.90
2019-05-30T08:59:54.065Z,6.60
2019-05-30T09:02:25.970Z,7.90
2019-05-30T09:04:57.683Z,9.50
2019-05-30T09:07:31.611Z,9.70
2019-05-30T09:10:02.787Z,10.20
2019-05-30T09:12:37.589Z,14.90
2019-05-30T09:15:10.183Z,19.60
2019-05-30T09:17:42.549Z,27.40
2019-05-30T09:20:16.935Z,32.80
2019-05-30T09:22:55.084Z,42.40
2019-05-30T09:25:28.208Z,47.20
2019-05-30T09:28:01.435Z,55.60
2019-05-30T09:30:33.209Z,62.30
2019-05-30T09:33:05.175Z,70.10
2019-05-30T09:35:36.881Z,63.10
2019-05-30T09:38:08.752Z,70.10
2019-05-30T09:40:41.710Z,74.10
2019-05-30T09:43:13.661Z,71.90
2019-05-30T09:45:46.037Z,75.20
2019-05-30T09:48:17.828Z,77.60
2019-05-30T09:50:51.156Z,76.60
2019-05-30T09:53:22.935Z,78.50
2019-05-30T09:55:58.624Z,81.40
2019-05-30T09:58:30.318Z,84.70
2019-05-30T10:01:03.507Z,86.30
2019-05-30T10:03:35.346Z,82.70
2019-05-30T10:06:07.090Z,80.40
2019-05-30T10:08:39.138Z,76.40
2019-05-30T10:11:11.013Z,71.90
2019-05-30T10:13:44.044Z,72.20
2019-05-30T10:16:17.261Z,65.00
2019-05-30T10:18:49.168Z,69.30
2019-05-30T10:21:20.863Z,61.30
2019-05-30T10:23:57.462Z,62.10
2019-05-30T10:26:29.296Z,59.40
2019-05-30T10:29:01.024Z,57.30
2019-05-30T10:31:32.924Z,59.60
2019-05-30T10:34:06.137Z,64.40
2019-05-30T10:36:44.308Z,63.70
2019-05-30T10:39:11.719Z,63.40
2019-05-30T10:41:44.574Z,64.70
2019-05-30T10:44:17.268Z,64.00
2019-05-30T10:46:50.788Z,65.20
2019-05-30T10:49:34.186Z,60.10
2019-05-30T10:51:59.448Z,65.20
2019-05-30T10:54:31.352Z,61.30
2019-05-30T10:57:04.477Z,59.20
2019-05-30T10:59:38.228Z,58.00
2019-05-30T11:02:10.163Z,56.60
2019-05-30T11:04:41.940Z,60.00
2019-05-30T11:07:53.091Z,59.50
2019-05-30T11:10:20.834Z,61.20
2019-05-30T11:12:57.452Z,54.30
2019-05-30T11:15:26.426Z,51.60
2019-05-30T11:17:58.373Z,48.20
2019-05-30T11:20:30.157Z,46.20
2019-05-30T11:23:02.821Z,44.30
2019-05-30T11:25:34.871Z,45.70
2019-05-30T11:28:07.406Z,44.80
2019-05-30T11:30:40.951Z,38.40
2019-05-30T11:33:13.025Z,38.90
2019-05-30T11:35:45.336Z,38.70
2019-05-30T11:38:18.656Z,32.90
2019-05-30T11:40:51.345Z,35.30
2019-05-30T11:43:23.147Z,32.00
2019-05-30T11:45:55.964Z,28.70
2019-05-30T11:48:28.525Z,26.30
2019-05-30T11:51:01.863Z,25.10
2019-05-30T11:53:34.271Z,23.90
2019-05-30T11:56:06.152Z,31.20
2019-05-30T11:58:38.024Z,21.10
2019-05-30T12:01:10.312Z,19.70
2019-05-30T12:03:42.153Z,18.60
2019-05-30T12:06:13.924Z,20.60
2019-05-30T12:08:45.684Z,21.00
2019-05-30T12:11:17.903Z,21.30
2019-05-30T12:13:51.578Z,19.80
2019-05-30T12:16:25.553Z,19.00
2019-05-30T12:18:58.070Z,15.40
2019-05-30T12:21:30.123Z,14.10
2019-05-30T12:24:04.642Z,14.10
2019-05-30T12:26:36.299Z,14.50
2019-05-30T12:29:10.775Z,16.30
2019-05-30T12:31:42.961Z,16.30
2019-05-30T12:34:16.792Z,17.70
2019-05-30T12:36:50.718Z,18.60
2019-05-30T12:39:22.397Z,21.00
2019-05-30T12:41:54.854Z,22.60
2019-05-30T12:44:26.655Z,23.60
2019-05-30T12:46:59.198Z,30.00
2019-05-30T12:49:30.959Z,34.60
2019-05-30T12:52:03.239Z,40.00
2019-05-30T12:54:35.150Z,40.30
2019-05-30T12:57:07.145Z,44.10
2019-05-30T12:59:38.863Z,50.00
2019-05-30T13:02:10.772Z,53.70
2019-05-30T13:04:42.494Z,57.50
2019-05-30T13:07:14.390Z,62.20
2019-05-30T13:09:46.374Z,63.20
2019-05-30T13:12:18.190Z,69.20
2019-05-30T13:14:49.913Z,69.30
2019-05-30T13:17:22.802Z,76.90
2019-05-30T13:19:55.050Z,85.60
2019-05-30T13:22:27.066Z,86.50
2019-05-30T13:24:59.696Z,91.10
2019-05-30T13:27:33.408Z,95.80
2019-05-30T13:30:06.290Z,94.90
2019-05-30T13:32:38.016Z,97.10
2019-05-30T13:35:11.162Z,99.10
2019-05-30T13:37:43.226Z,99.90
2019-05-30T13:40:25.042Z,98.90
2019-05-30T13:42:49.545Z,97.50
2019-05-30T13:45:21.405Z,99.60
2019-05-30T13:47:53.129Z,98.80
2019-05-30T13:50:25.113Z,97.30
2019-05-30T13:52:57.098Z,99.90
2019-05-30T13:55:28.915Z,99.90
2019-05-30T13:58:01.569Z,99.70
2019-05-30T14:00:33.651Z,97.50
2019-05-30T14:03:08.209Z,93.70
2019-05-30T14:05:39.918Z,96.10
2019-05-30T14:08:16.502Z,96.10
2019-05-30T14:10:45.785Z,95.90
2019-05-30T14:13:17.558Z,93.50
2019-05-30T14:15:49.462Z,94.80
2019-05-30T14:18:21.328Z,93.20
2019-05-30T14:20:53.200Z,94.10
2019-05-30T14:23:24.929Z,92.20
2019-05-30T14:25:57.619Z,92.50
2019-05-30T14:28:29.494Z,92.20
2019-05-30T14:31:03.413Z,93.90
2019-05-30T14:33:34.989Z,93.30
2019-05-30T14:36:10.953Z,93.80
2019-05-30T14:38:55.023Z,95.00
2019-05-30T14:41:15.664Z,93.40
2019-05-30T14:43:47.440Z,92.40
2019-05-30T14:46:19.458Z,91.40
2019-05-30T14:48:51.157Z,90.40
2019-05-30T14:51:23.009Z,90.60
2019-05-30T14:53:57.626Z,90.10
2019-05-30T14:56:29.555Z,87.80
2019-05-30T14:59:01.442Z,89.10
2019-05-30T15:01:35.507Z,87.10
2019-05-30T15:04:07.198Z,82.60
2019-05-30T15:06:38.908Z,84.70
2019-05-30T15:09:20.719Z,84.20
2019-05-30T15:11:46.100Z,81.90
2019-05-30T15:14:18.251Z,79.10
2019-05-30T15:16:50.082Z,80.00
2019-05-30T15:19:21.942Z,77.30
2019-05-30T15:21:54.155Z,80.80
2019-05-30T15:24:26.177Z,80.10
2019-05-30T15:26:59.583Z,80.70
2019-05-30T15:29:31.417Z,78.60
2019-05-30T15:32:06.226Z,80.10
2019-05-30T15:34:36.633Z,78.20
2019-05-30T15:37:08.641Z,73.50
2019-05-30T15:39:42.617Z,74.40
2019-05-30T15:42:15.415Z,72.40
2019-05-30T15:44:47.334Z,68.40
2019-05-30T15:47:19.426Z,70.10
2019-05-30T15:49:52.282Z,67.80
2019-05-30T15:52:24.237Z,67.60
2019-05-30T15:54:56.166Z,64.50
2019-05-30T15:57:28.553Z,60.00
2019-05-30T16:00:00.523Z,59.80
2019-05-30T16:02:32.416Z,54.00
2019-05-30T16:05:05.350Z,52.30
2019-05-30T16:07:37.372Z,50.50
2019-05-30T16:10:11.044Z,52.10
2019-05-30T16:12:42.845Z,47.30
2019-05-30T16:15:17.596Z,47.90
2019-05-30T16:17:49.446Z,47.20
2019-05-30T16:20:22.033Z,45.20
2019-05-30T16:22:54.044Z,45.80
2019-05-30T16:25:25.960Z,45.00
2019-05-30T16:27:57.712Z,40.50
2019-05-30T16:30:29.449Z,39.30
2019-05-30T16:33:02.324Z,38.60
2019-05-30T16:35:34.138Z,37.40
2019-05-30T16:38:05.922Z,38.30
2019-05-30T16:40:37.594Z,38.20
2019-05-30T16:43:09.399Z,39.30
2019-05-30T16:45:41.301Z,40.80
2019-05-30T16:48:14.275Z,40.80
2019-05-30T16:50:46.154Z,37.60
2019-05-30T16:53:19.351Z,41.50
2019-05-30T16:55:51.511Z,41.80
2019-05-30T16:58:23.817Z,41.70
2019-05-30T17:00:55.552Z,41.80
2019-05-30T17:03:27.447Z,41.70
2019-05-30T17:05:59.499Z,43.20
2019-05-30T17:08:32.146Z,43.30
2019-05-30T17:11:03.969Z,43.10
2019-05-30T17:13:35.738Z,41.80
2019-05-30T17:16:07.598Z,44.30
2019-05-30T17:18:39.941Z,43.30
2019-05-30T17:21:12.730Z,43.20
2019-05-30T17:23:44.590Z,57.30
2019-05-30T17:26:17.049Z,45.00
2019-05-30T17:28:51.046Z,44.90
2019-05-30T17:31:26.068Z,45.10
2019-05-30T17:33:58.425Z,46.60
2019-05-30T17:36:30.253Z,44.00
2019-05-30T17:39:03.284Z,44.30
2019-05-30T17:41:36.557Z,45.30
2019-05-30T17:44:08.412Z,46.60
2019-05-30T17:46:40.276Z,44.70
2019-05-30T17:49:12.164Z,44.30
2019-05-30T17:51:44.007Z,46.20
2019-05-30T17:54:15.751Z,46.00
2019-05-30T17:56:47.544Z,47.40
2019-05-30T17:59:20.154Z,47.10
2019-05-30T18:01:51.912Z,47.60
2019-05-30T18:04:24.447Z,48.10
2019-05-30T18:06:57.533Z,49.00
2019-05-30T18:09:29.381Z,49.30
2019-05-30T18:12:01.133Z,52.00
2019-05-30T18:14:34.042Z,52.30
2019-05-30T18:17:09.248Z,51.40
2019-05-30T18:19:39.690Z,53.10
2019-05-30T18:22:11.910Z,52.50
2019-05-30T18:24:44.011Z,52.40
2019-05-30T18:27:16.248Z,53.20
2019-05-30T18:29:48.153Z,53.10
2019-05-30T18:32:24.088Z,54.30
2019-05-30T18:34:57.510Z,53.80
2019-05-30T18:37:30.794Z,53.80
2019-05-30T18:40:03.146Z,54.30
2019-05-30T18:42:35.103Z,56.30
2019-05-30T18:45:09.418Z,55.70
2019-05-30T18:47:41.379Z,55.80
2019-05-30T18:50:13.261Z,56.70
2019-05-30T18:52:47.067Z,56.50
2019-05-30T18:55:18.915Z,56.20
2019-05-30T18:57:51.498Z,57.30
2019-05-30T19:00:23.432Z,59.70
2019-05-30T19:02:55.138Z,58.70
2019-05-30T19:05:28.571Z,60.40
2019-05-30T19:08:00.585Z,63.40
2019-05-30T19:10:32.576Z,64.20
2019-05-30T19:13:04.512Z,80.70
2019-05-30T19:15:37.547Z,65.80
2019-05-30T19:18:09.739Z,68.50
2019-05-30T19:20:41.804Z,68.10
2019-05-30T19:23:13.876Z,69.30
2019-05-30T19:25:45.921Z,68.90
2019-05-30T19:28:17.632Z,71.90
2019-05-30T19:30:50.332Z,70.20
2019-05-30T19:33:22.229Z,71.80
2019-05-30T19:35:55.848Z,74.80
2019-05-30T19:38:29.437Z,73.60
2019-05-30T19:41:03.012Z,73.50
2019-05-30T19:43:35.802Z,74.10
2019-05-30T19:46:08.538Z,88.70
2019-05-30T19:48:40.334Z,73.50
2019-05-30T19:51:12.358Z,73.70
2019-05-30T19:53:45.943Z,74.10
2019-05-30T19:56:17.802Z,73.70
2019-05-30T19:58:49.618Z,74.60
2019-05-30T20:01:21.399Z,74.50
2019-05-30T20:03:53.167Z,75.70
2019-05-30T20:06:27.396Z,74.30
2019-05-30T20:08:59.461Z,76.70
2019-05-30T20:11:31.311Z,78.10
2019-05-30T20:14:03.481Z,80.50
2019-05-30T20:16:35.723Z,81.60
2019-05-30T20:19:07.493Z,80.90
2019-05-30T20:21:39.925Z,81.50
2019-05-30T20:24:11.828Z,82.80
2019-05-30T20:26:43.615Z,82.70
2019-05-30T20:29:15.407Z,83.40
2019-05-30T20:31:47.216Z,85.20
2019-05-30T20:34:19.124Z,85.20
2019-05-30T20:36:50.815Z,86.80
2019-05-30T20:39:25.530Z,88.40
2019-05-30T20:41:57.261Z,87.80
2019-05-30T20:44:29.047Z,89.20
2019-05-30T20:47:00.750Z,91.00
2019-05-30T20:49:32.478Z,91.10
2019-05-30T20:52:04.151Z,90.70
2019-05-30T20:54:35.834Z,91.90
2019-05-30T20:57:07.544Z,92.60
2019-05-30T20:59:40.588Z,92.50
2019-05-30T21:02:13.895Z,92.40
2019-05-30T21:04:45.628Z,93.10
2019-05-30T21:07:20.757Z,94.10
2019-05-30T21:09:55.590Z,93.30
2019-05-30T21:12:41.029Z,93.80
2019-05-30T21:15:03.944Z,93.70
2019-05-30T21:17:37.600Z,94.40
2019-05-30T21:20:11.503Z,94.60
2019-05-30T21:22:44.707Z,95.10
2019-05-30T21:25:16.671Z,96.30
2019-05-30T21:27:48.553Z,95.80
2019-05-30T21:30:21.743Z,96.10
2019-05-30T21:32:53.664Z,97.80
2019-05-30T21:35:27.577Z,97.60
2019-05-30T21:37:59.385Z,99.30
2019-05-30T21:40:33.428Z,99.90
2019-05-30T21:43:07.299Z,99.90
2019-05-30T21:45:40.331Z,99.90
2019-05-30T21:48:12.181Z,99.90
2019-05-30T21:50:45.963Z,99.90
2019-05-30T21:53:19.257Z,99.90
2019-05-30T21:55:50.961Z,99.90
2019-05-30T21:58:22.753Z,99.90
2019-05-30T22:01:27.736Z,99.90
2019-05-30T22:04:02.390Z,99.90
2019-05-30T22:06:34.261Z,99.90
2019-05-30T22:09:09.382Z,99.90
2019-05-30T22:11:41.639Z,99.90
2019-05-30T22:14:15.667Z,99.90
2019-05-30T22:16:47.884Z,99.90
2019-05-30T22:19:22.958Z,99.90
2019-05-30T22:21:58.786Z,99.90
2019-05-30T22:24:30.743Z,99.90
2019-05-30T22:27:03.278Z,99.90
2019-05-30T22:29:36.101Z,99.90
2019-05-30T22:32:10.011Z,99.90
2019-05-30T22:34:42.727Z,99.90
2019-05-30T22:37:14.875Z,99.90
2019-05-30T22:39:48.834Z,99.90
2019-05-30T22:42:20.894Z,99.90
2019-05-30T22:45:08.836Z,99.90
2019-05-30T22:47:40.840Z,99.90
2019-05-30T22:50:13.827Z,99.90
2019-05-30T22:52:46.746Z,99.90
2019-05-30T22:55:18.830Z,99.90
2019-05-30T22:57:50.775Z,99.90
2019-05-30T23:00:23.187Z,99.90
2019-05-30T23:02:56.060Z,99.90
2019-05-30T23:05:28.241Z,99.90
2019-05-30T23:08:00.133Z,99.90
2019-05-30T23:10:32.335Z,99.90
2019-05-30T23:13:04.312Z,99.90
2019-05-30T23:15:36.484Z,99.90
2019-05-30T23:18:08.295Z,99.90
2019-05-30T23:20:40.786Z,99.90
2019-05-30T23:23:13.158Z,99.90
2019-05-30T23:25:47.056Z,99.90
2019-05-30T23:28:20.521Z,99.90
2019-05-30T23:30:56.393Z,99.90
2019-05-30T23:33:28.462Z,99.90
2019-05-30T23:36:00.328Z,99.90
2019-05-30T23:38:32.259Z,99.90
2019-05-30T23:41:04.100Z,99.90
2019-05-30T23:43:35.881Z,99.90
2019-05-30T23:46:08.069Z,99.90
2019-05-30T23:48:40.289Z,99.90
2019-05-30T23:51:18.779Z,99.90
2019-05-30T23:53:52.016Z,99.90
2019-05-30T23:56:24.211Z,99.90
2019-05-30T23:58:56.836Z,99.90
